Time,TemperatureF,DewpointF,PressureIn,WindDirection,WindDirectionDegrees,WindSpeedMPH,WindSpeedGustMPH,Humidity,HourlyPrecipIn,Conditions,Clouds,dailyrainin,SoftwareType,DateUTC
2013-05-29 00:00:00,57.0,56.5,30.53,SW,225,0.0,-999.0,98,-99.99,,,0.00,Acu-Link.com,2013-05-29 04:00:00,
2013-05-29 00:15:00,57.0,56.5,30.53,West,270,0.0,-999.0,98,-99.99,,,0.00,Acu-Link.com,2013-05-29 04:15:00,
2013-05-29 00:30:00,57.0,56.5,30.53,East,90,0.0,-999.0,98,-99.99,,,0.01,Acu-Link.com,2013-05-29 04:30:00,
2013-05-29 00:45:00,57.0,56.5,30.52,NW,315,0.0,-999.0,98,-99.99,,,0.04,Acu-Link.com,2013-05-29 04:45:00,
2013-05-29 01:00:00,56.7,56.1,30.52,East,90,0.0,-999.0,98,-99.99,,,0.07,Acu-Link.com,2013-05-29 05:00:00,
2013-05-29 01:15:00,56.8,56.3,30.52,NNE,22,0.0,-999.0,98,-99.99,,,0.14,Acu-Link.com,2013-05-29 05:15:00,
2013-05-29 01:31:00,56.7,56.1,30.51,ENE,67,0.0,-999.0,98,-99.99,,,0.15,Acu-Link.com,2013-05-29 05:31:00,
2013-05-29 01:46:00,56.5,55.9,30.51,NE,45,1.1,-999.0,98,-99.99,,,0.18,Acu-Link.com,2013-05-29 05:46:00,
2013-05-29 02:01:00,56.5,55.9,30.51,NW,315,0.0,-999.0,98,-99.99,,,0.18,Acu-Link.com,2013-05-29 06:01:00,
2013-05-29 02:16:00,56.5,55.9,30.50,ENE,67,1.6,-999.0,98,-99.99,,,0.18,Acu-Link.com,2013-05-29 06:16:00,
2013-05-29 02:32:00,56.3,55.7,30.50,NNE,22,0.0,-999.0,98,-99.99,,,0.19,Acu-Link.com,2013-05-29 06:32:00,
2013-05-29 02:47:00,56.1,55.6,30.48,NE,45,2.7,-999.0,98,-99.99,,,0.19,Acu-Link.com,2013-05-29 06:47:00,
2013-05-29 03:02:00,56.1,55.6,30.48,South,180,0.0,-999.0,98,-99.99,,,0.19,Acu-Link.com,2013-05-29 07:02:00,
2013-05-29 03:17:00,55.9,55.4,30.47,NE,45,0.0,-999.0,98,-99.99,,,0.19,Acu-Link.com,2013-05-29 07:17:00,
2013-05-29 03:48:00,56.1,55.6,30.46,ENE,67,0.0,-999.0,98,-99.99,,,0.19,Acu-Link.com,2013-05-29 07:48:00,
2013-05-29 04:03:00,56.1,55.6,30.46,North,0,0.0,-999.0,98,-99.99,,,0.19,Acu-Link.com,2013-05-29 08:03:00,
2013-05-29 04:19:00,56.3,55.7,30.46,North,0,0.0,-999.0,98,-99.99,,,0.19,Acu-Link.com,2013-05-29 08:19:00,
2013-05-29 04:34:00,56.3,55.7,30.46,North,0,0.0,-999.0,98,-99.99,,,0.19,Acu-Link.com,2013-05-29 08:34:00,
2013-05-29 04:49:00,56.3,55.7,30.46,ENE,67,0.0,-999.0,98,-99.99,,,0.19,Acu-Link.com,2013-05-29 08:49:00,
2013-05-29 05:04:00,56.3,55.7,30.46,SSE,157,0.0,-999.0,98,-99.99,,,0.19,Acu-Link.com,2013-05-29 09:04:00,
2013-05-29 05:19:00,56.3,55.7,30.47,West,270,0.0,-999.0,98,-99.99,,,0.19,Acu-Link.com,2013-05-29 09:19:00,
2013-05-29 05:34:00,56.5,55.9,30.46,NNE,22,0.0,-999.0,98,-99.99,,,0.19,Acu-Link.com,2013-05-29 09:34:00,
2013-05-29 05:49:00,56.5,55.9,30.47,ENE,67,0.0,-999.0,98,-99.99,,,0.19,Acu-Link.com,2013-05-29 09:49:00,
2013-05-29 06:04:00,56.5,55.9,30.47,NE,45,0.0,-999.0,98,-99.99,,,0.19,Acu-Link.com,2013-05-29 10:04:00,
2013-05-29 06:20:00,56.5,55.9,30.47,East,90,0.0,-999.0,98,-99.99,,,0.20,Acu-Link.com,2013-05-29 10:20:00,
2013-05-29 06:35:00,56.7,56.1,30.47,NE,45,1.6,-999.0,98,-99.99,,,0.20,Acu-Link.com,2013-05-29 10:35:00,
2013-05-29 06:50:00,56.7,56.1,30.47,ENE,67,0.0,-999.0,98,-99.99,,,0.20,Acu-Link.com,2013-05-29 10:50:00,
2013-05-29 07:05:00,56.7,56.1,30.47,NE,45,0.0,-999.0,98,-99.99,,,0.21,Acu-Link.com,2013-05-29 11:05:00,
2013-05-29 07:21:00,56.8,56.3,30.47,SW,225,0.0,-999.0,98,-99.99,,,0.21,Acu-Link.com,2013-05-29 11:21:00,
2013-05-29 07:36:00,57.2,56.6,30.47,West,270,0.0,-999.0,98,-99.99,,,0.21,Acu-Link.com,2013-05-29 11:36:00,
2013-05-29 07:51:00,57.6,57.0,30.47,WSW,247,1.6,-999.0,98,-99.99,,,0.22,Acu-Link.com,2013-05-29 11:51:00,
2013-05-29 08:06:00,58.1,57.5,30.45,NNE,22,1.6,-999.0,98,-99.99,,,0.22,Acu-Link.com,2013-05-29 12:06:00,
2013-05-29 08:21:00,58.3,57.7,30.46,SE,135,0.0,-999.0,98,-99.99,,,0.22,Acu-Link.com,2013-05-29 12:21:00,
2013-05-29 08:37:00,58.8,58.3,30.46,SE,135,0.0,-999.0,98,-99.99,,,0.22,Acu-Link.com,2013-05-29 12:37:00,
2013-05-29 08:52:00,59.7,59.2,30.47,WNW,292,1.6,-999.0,98,-99.99,,,0.22,Acu-Link.com,2013-05-29 12:52:00,
2013-05-29 09:07:00,61.2,59.1,30.47,East,90,0.0,-999.0,93,-99.99,,,0.22,Acu-Link.com,2013-05-29 13:07:00,
2013-05-29 09:22:00,61.9,48.3,30.46,South,180,0.0,-999.0,61,-99.99,,,0.22,Acu-Link.com,2013-05-29 13:22:00,
2013-05-29 09:37:00,61.2,58.2,30.47,NE,45,0.0,-999.0,90,-99.99,,,0.22,Acu-Link.com,2013-05-29 13:37:00,
2013-05-29 09:53:00,63.7,46.7,30.46,SSW,202,0.0,-999.0,54,-99.99,,,0.22,Acu-Link.com,2013-05-29 13:53:00,
2013-05-29 10:08:00,62.2,53.8,30.47,NW,315,1.6,-999.0,74,-99.99,,,0.22,Acu-Link.com,2013-05-29 14:08:00,
2013-05-29 10:23:00,64.0,38.6,30.46,SSW,202,0.0,-999.0,39,-99.99,,,0.22,Acu-Link.com,2013-05-29 14:23:00,
2013-05-29 10:38:00,63.0,58.7,30.47,West,270,0.0,-999.0,86,-99.99,,,0.22,Acu-Link.com,2013-05-29 14:38:00,
2013-05-29 10:53:00,63.5,48.0,30.46,West,270,2.7,-999.0,57,-99.99,,,0.22,Acu-Link.com,2013-05-29 14:53:00,
2013-05-29 11:09:00,65.7,49.5,30.45,SSE,157,0.0,-999.0,56,-99.99,,,0.22,Acu-Link.com,2013-05-29 15:09:00,
2013-05-29 11:24:00,66.0,41.0,30.45,SE,135,1.6,-999.0,40,-99.99,,,0.22,Acu-Link.com,2013-05-29 15:24:00,
2013-05-29 11:39:00,66.6,43.4,30.45,SSW,202,1.6,-999.0,43,-99.99,,,0.22,Acu-Link.com,2013-05-29 15:39:00,
2013-05-29 11:54:00,67.6,9.1,30.45,West,270,2.2,-999.0,10,-99.99,,,0.22,Acu-Link.com,2013-05-29 15:54:00,
2013-05-29 12:10:00,71.1,70.8,30.44,SW,225,1.6,-999.0,99,-99.99,,,0.22,Acu-Link.com,2013-05-29 16:10:00,
2013-05-29 12:25:00,73.0,72.7,30.44,WNW,292,5.1,-999.0,99,-99.99,,,0.22,Acu-Link.com,2013-05-29 16:25:00,
2013-05-29 12:40:00,73.8,73.5,30.43,ENE,67,1.1,-999.0,99,-99.99,,,0.22,Acu-Link.com,2013-05-29 16:40:00,
2013-05-29 12:55:00,75.7,75.4,30.41,West,270,4.3,-999.0,99,-99.99,,,0.22,Acu-Link.com,2013-05-29 16:55:00,
2013-05-29 13:10:00,76.6,76.3,30.42,WNW,292,4.7,-999.0,99,-99.99,,,0.22,Acu-Link.com,2013-05-29 17:10:00,
2013-05-29 13:26:00,77.7,77.4,30.42,NW,315,4.7,-999.0,99,-99.99,,,0.22,Acu-Link.com,2013-05-29 17:26:00,
2013-05-29 13:41:00,77.5,77.2,30.41,SW,225,4.3,-999.0,99,-99.99,,,0.22,Acu-Link.com,2013-05-29 17:41:00,
2013-05-29 13:56:00,78.3,78.0,30.41,WSW,247,2.7,-999.0,99,-99.99,,,0.22,Acu-Link.com,2013-05-29 17:56:00,
2013-05-29 14:11:00,79.3,79.0,30.41,WSW,247,5.1,-999.0,99,-99.99,,,0.22,Acu-Link.com,2013-05-29 18:11:00,
2013-05-29 14:26:00,77.7,77.4,30.41,SSW,202,3.1,-999.0,99,-99.99,,,0.22,Acu-Link.com,2013-05-29 18:26:00,
2013-05-29 14:42:00,77.7,77.4,30.40,SSW,202,3.1,-999.0,99,-99.99,,,0.22,Acu-Link.com,2013-05-29 18:42:00,
2013-05-29 14:57:00,79.5,79.2,30.39,SW,225,5.8,-999.0,99,-99.99,,,0.22,Acu-Link.com,2013-05-29 18:57:00,
2013-05-29 15:12:00,79.7,79.4,30.39,West,270,5.8,-999.0,99,-99.99,,,0.22,Acu-Link.com,2013-05-29 19:12:00,
2013-05-29 15:27:00,80.6,80.3,30.39,West,270,5.1,-999.0,99,-99.99,,,0.22,Acu-Link.com,2013-05-29 19:27:00,
2013-05-29 15:42:00,81.3,81.0,30.39,WSW,247,5.8,-999.0,99,-99.99,,,0.22,Acu-Link.com,2013-05-29 19:42:00,
2013-05-29 15:58:00,81.7,81.4,30.39,ESE,112,5.8,-999.0,99,-99.99,,,0.22,Acu-Link.com,2013-05-29 19:58:00,
2013-05-29 16:13:00,79.5,79.2,30.39,WNW,292,5.1,-999.0,99,-99.99,,,0.22,Acu-Link.com,2013-05-29 20:13:00,
2013-05-29 16:28:00,81.0,80.7,30.39,NW,315,4.3,-999.0,99,-99.99,,,0.22,Acu-Link.com,2013-05-29 20:28:00,
2013-05-29 16:43:00,81.3,81.0,30.39,West,270,4.7,-999.0,99,-99.99,,,0.22,Acu-Link.com,2013-05-29 20:43:00,
2013-05-29 16:59:00,80.8,80.5,30.39,SW,225,3.8,-999.0,99,-99.99,,,0.22,Acu-Link.com,2013-05-29 20:59:00,
2013-05-29 17:14:00,81.5,81.2,30.39,WSW,247,4.7,-999.0,99,-99.99,,,0.22,Acu-Link.com,2013-05-29 21:14:00,
2013-05-29 17:29:00,81.0,80.7,30.39,WSW,247,5.8,-999.0,99,-99.99,,,0.22,Acu-Link.com,2013-05-29 21:29:00,
2013-05-29 17:44:00,81.7,81.4,30.38,WSW,247,3.1,-999.0,99,-99.99,,,0.22,Acu-Link.com,2013-05-29 21:44:00,
2013-05-29 17:59:00,81.3,81.0,30.38,NNE,22,2.7,-999.0,99,-99.99,,,0.22,Acu-Link.com,2013-05-29 21:59:00,
2013-05-29 18:15:00,81.5,81.2,30.37,ESE,112,0.0,-999.0,99,-99.99,,,0.22,Acu-Link.com,2013-05-29 22:15:00,
2013-05-29 18:30:00,81.5,81.2,30.37,NW,315,1.6,-999.0,99,-99.99,,,0.22,Acu-Link.com,2013-05-29 22:30:00,
2013-05-29 18:45:00,82.0,81.7,30.37,SSE,157,2.2,-999.0,99,-99.99,,,0.22,Acu-Link.com,2013-05-29 22:45:00,
2013-05-29 19:00:00,81.9,81.5,30.37,West,270,3.1,-999.0,99,-99.99,,,0.22,Acu-Link.com,2013-05-29 23:00:00,
2013-05-29 19:15:00,80.4,80.1,30.37,WSW,247,2.7,-999.0,99,-99.99,,,0.22,Acu-Link.com,2013-05-29 23:15:00,
2013-05-29 19:31:00,78.4,78.1,30.37,NNE,22,0.0,-999.0,99,-99.99,,,0.22,Acu-Link.com,2013-05-29 23:31:00,
2013-05-29 19:46:00,76.5,76.2,30.38,ESE,112,0.0,-999.0,99,-99.99,,,0.22,Acu-Link.com,2013-05-29 23:46:00,
2013-05-29 20:01:00,74.1,73.8,30.38,ESE,112,0.0,-999.0,99,-99.99,,,0.22,Acu-Link.com,2013-05-30 00:01:00,
2013-05-29 20:16:00,72.0,39.7,30.39,SSE,157,0.0,-999.0,31,-99.99,,,0.22,Acu-Link.com,2013-05-30 00:16:00,
2013-05-29 20:31:00,71.1,52.5,30.38,NNW,337,1.1,-999.0,52,-99.99,,,0.22,Acu-Link.com,2013-05-30 00:31:00,
2013-05-29 20:47:00,70.5,48.7,30.38,South,180,2.2,-999.0,46,-99.99,,,0.22,Acu-Link.com,2013-05-30 00:47:00,
2013-05-29 21:02:00,70.5,48.1,30.39,WNW,292,0.0,-999.0,45,-99.99,,,0.22,Acu-Link.com,2013-05-30 01:02:00,
2013-05-29 21:17:00,70.2,51.2,30.40,ESE,112,0.0,-999.0,51,-99.99,,,0.22,Acu-Link.com,2013-05-30 01:17:00,
2013-05-29 21:32:00,70.0,58.1,30.42,West,270,4.7,-999.0,66,-99.99,,,0.22,Acu-Link.com,2013-05-30 01:32:00,
2013-05-29 21:47:00,71.1,70.8,30.44,West,270,6.7,-999.0,99,-99.99,,,0.22,Acu-Link.com,2013-05-30 01:47:00,
2013-05-29 22:03:00,68.5,23.4,30.46,South,180,3.1,-999.0,18,-99.99,,,0.24,Acu-Link.com,2013-05-30 02:03:00,